createdAt,value
2022-09-05T00:00:58.829Z,1.40
2022-09-05T00:03:26.349Z,1.40
2022-09-05T00:06:06.757Z,1.30
2022-09-05T00:08:51.008Z,1.47
2022-09-05T00:11:41.105Z,1.40
2022-09-05T00:14:13.389Z,1.47
2022-09-05T00:16:56.562Z,1.20
2022-09-05T00:24:18.581Z,1.40
2022-09-05T00:24:28.182Z,1.20
2022-09-05T00:25:28.193Z,1.70
2022-09-05T00:27:58.648Z,1.30
2022-09-05T00:31:07.465Z,1.30
2022-09-05T00:33:32.451Z,1.40
2022-09-05T00:36:02.357Z,1.50
2022-09-05T00:38:37.084Z,1.43
2022-09-05T00:41:14.499Z,1.37
2022-09-05T00:43:47.561Z,1.40
2022-09-05T00:46:16.729Z,1.30
2022-09-05T00:48:52.186Z,1.40
2022-09-05T00:51:35.137Z,1.30
2022-09-05T00:54:02.333Z,1.43
2022-09-05T00:56:48.271Z,1.40
2022-09-05T00:59:34.384Z,1.47
2022-09-05T01:02:15.064Z,1.33
2022-09-05T01:04:52.585Z,1.33
2022-09-05T01:07:38.425Z,1.43
2022-09-05T01:10:12.461Z,1.40
2022-09-05T01:12:54.878Z,1.57
2022-09-05T01:15:32.945Z,1.40
2022-09-05T01:18:00.607Z,1.30
2022-09-05T01:20:29.750Z,1.40
2022-09-05T01:23:19.673Z,1.30
2022-09-05T01:25:58.410Z,1.37
2022-09-05T01:29:17.804Z,1.40
2022-09-05T01:31:37.614Z,1.50
2022-09-05T01:34:24.860Z,1.40
2022-09-05T01:36:59.344Z,1.40
2022-09-05T01:40:14.866Z,1.60
2022-09-05T01:42:30.187Z,1.40
2022-09-05T01:44:59.012Z,1.40
2022-09-05T01:47:38.139Z,1.30
2022-09-05T01:50:07.339Z,1.37
2022-09-05T01:53:01.916Z,1.50
2022-09-05T01:56:05.196Z,1.30
2022-09-05T01:58:33.943Z,1.50
2022-09-05T02:01:25.379Z,1.53
2022-09-05T02:04:08.471Z,1.47
2022-09-05T02:06:47.275Z,1.47
2022-09-05T02:09:23.587Z,1.27
2022-09-05T02:11:50.733Z,1.40
2022-09-05T02:14:24.422Z,1.50
2022-09-05T02:17:49.892Z,1.50
2022-09-05T02:20:23.532Z,1.50
2022-09-05T02:23:00.914Z,1.40
2022-09-05T02:26:01.020Z,1.50
2022-09-05T02:28:31.982Z,1.57
2022-09-05T02:31:19.613Z,1.37
2022-09-05T02:33:51.251Z,1.40
2022-09-05T02:36:36.568Z,1.53
2022-09-05T02:44:27.125Z,1.30
2022-09-05T02:45:09.113Z,1.30
2022-09-05T02:45:13.549Z,1.40
2022-09-05T02:48:04.171Z,1.47
2022-09-05T02:57:20.231Z,1.40
2022-09-05T02:57:25.428Z,1.53
2022-09-05T02:57:37.038Z,1.50
2022-09-05T02:59:13.936Z,1.57
2022-09-05T03:02:05.717Z,1.50
2022-09-05T03:05:13.028Z,1.23
2022-09-05T03:08:00.441Z,1.57
2022-09-05T03:10:54.094Z,1.53
2022-09-05T03:13:31.455Z,1.50
2022-09-05T03:16:16.843Z,1.40
2022-09-05T03:18:47.092Z,1.50
2022-09-05T03:21:32.947Z,1.50
2022-09-05T03:24:06.200Z,1.50
2022-09-05T03:26:52.009Z,1.43
2022-09-05T03:29:37.855Z,1.50
2022-09-05T03:32:07.967Z,1.50
2022-09-05T03:34:35.085Z,1.50
2022-09-05T03:37:21.023Z,1.33
2022-09-05T03:39:48.237Z,1.40
2022-09-05T03:42:19.099Z,1.50
2022-09-05T03:44:50.042Z,1.40
2022-09-05T03:47:26.870Z,1.40
2022-09-05T03:52:51.413Z,1.60
2022-09-05T03:57:14.834Z,1.50
2022-09-05T03:57:28.412Z,1.57
2022-09-05T03:59:09.355Z,1.40
2022-09-05T04:04:31.794Z,1.70
2022-09-05T04:08:14.986Z,1.53
2022-09-05T04:08:15.589Z,1.50
2022-09-05T04:10:13.967Z,1.60
2022-09-05T04:12:57.470Z,1.40
2022-09-05T04:15:37.725Z,1.50
2022-09-05T04:18:25.177Z,1.60
2022-09-05T04:21:05.898Z,1.50
2022-09-05T04:23:42.689Z,1.90
2022-09-05T04:26:35.752Z,1.63
2022-09-05T04:29:08.766Z,1.80
2022-09-05T04:31:35.993Z,1.60
2022-09-05T04:34:26.556Z,1.50
2022-09-05T04:37:04.873Z,1.60
2022-09-05T04:39:33.414Z,1.60
2022-09-05T04:42:00.707Z,1.70
2022-09-05T04:44:31.690Z,1.50
2022-09-05T04:47:03.851Z,1.60
2022-09-05T04:49:34.573Z,1.50
2022-09-05T04:52:26.900Z,1.50
2022-09-05T04:55:16.480Z,1.60
2022-09-05T04:57:49.881Z,1.50
2022-09-05T05:06:02.649Z,1.60
2022-09-05T05:06:13.500Z,1.63
2022-09-05T05:06:38.168Z,1.60
2022-09-05T05:08:55.648Z,1.60
2022-09-05T05:17:55.480Z,1.70
2022-09-05T05:17:59.916Z,1.60
2022-09-05T05:18:12.787Z,1.80
2022-09-05T05:20:40.445Z,1.80
2022-09-05T05:23:10.811Z,1.63
2022-09-05T05:25:57.012Z,1.60
2022-09-05T05:28:42.813Z,1.50
2022-09-05T05:31:12.961Z,1.50
2022-09-05T05:33:41.557Z,1.70
2022-09-05T05:36:15.316Z,1.67
2022-09-05T05:39:01.107Z,1.80
2022-09-05T05:41:38.483Z,1.73
2022-09-05T05:44:16.240Z,1.80
2022-09-05T05:46:46.979Z,1.60
2022-09-05T05:49:28.368Z,1.20
2022-09-05T05:52:08.044Z,1.43
2022-09-05T05:54:43.185Z,1.50
2022-09-05T05:57:25.219Z,1.40
2022-09-05T06:00:04.814Z,1.30
2022-09-05T06:03:01.875Z,1.50
2022-09-05T06:05:49.101Z,1.40
2022-09-05T06:11:06.029Z,1.63
2022-09-05T06:14:52.940Z,1.50
2022-09-05T06:15:08.925Z,1.50
2022-09-05T06:17:27.852Z,1.40
2022-09-05T06:21:12.766Z,1.40
2022-09-05T06:22:55.078Z,1.30
2022-09-05T06:25:40.942Z,1.33
2022-09-05T06:28:18.920Z,1.30
2022-09-05T06:30:47.224Z,1.50
2022-09-05T06:33:31.059Z,1.73
2022-09-05T06:36:24.711Z,1.67
2022-09-05T06:39:00.834Z,2.00
2022-09-05T06:41:28.447Z,1.30
2022-09-05T06:44:15.244Z,1.50
2022-09-05T06:47:23.258Z,2.10
2022-09-05T06:49:42.836Z,1.23
2022-09-05T06:52:30.289Z,1.30
2022-09-05T06:54:59.856Z,1.33
2022-09-05T06:57:33.389Z,1.23
2022-09-05T07:00:10.335Z,1.23
2022-09-05T07:03:00.079Z,1.30
2022-09-05T07:05:39.801Z,1.20
2022-09-05T07:08:36.497Z,1.30
2022-09-05T07:11:16.266Z,1.30
2022-09-05T07:14:03.055Z,1.13
2022-09-05T07:16:42.495Z,1.47
2022-09-05T07:19:10.209Z,1.20
2022-09-05T07:22:02.588Z,1.20
2022-09-05T07:24:54.435Z,1.30
2022-09-05T07:27:31.919Z,1.30
2022-09-05T07:30:01.727Z,1.30
2022-09-05T07:32:33.852Z,2.07
2022-09-05T07:35:03.577Z,1.37
2022-09-05T07:37:39.064Z,1.20
2022-09-05T07:40:24.902Z,1.20
2022-09-05T07:43:10.860Z,1.30
2022-09-05T07:45:55.308Z,1.20
2022-09-05T07:48:35.249Z,1.10
2022-09-05T07:55:13.802Z,1.20
2022-09-05T07:56:55.563Z,1.20
2022-09-05T07:57:01.601Z,1.20
2022-09-05T07:59:34.794Z,1.20
2022-09-05T08:02:02.475Z,1.40
2022-09-05T08:04:36.759Z,1.20
2022-09-05T08:07:47.022Z,1.10
2022-09-05T08:10:05.519Z,1.20
2022-09-05T08:13:00.602Z,1.17
2022-09-05T08:15:26.304Z,1.20
2022-09-05T08:18:17.106Z,1.20
2022-09-05T08:20:44.333Z,0.93
2022-09-05T08:23:17.115Z,1.10
2022-09-05T08:25:59.470Z,1.10
2022-09-05T08:28:39.259Z,1.10
2022-09-05T08:31:16.319Z,1.30
2022-09-05T08:33:43.884Z,1.20
2022-09-05T08:36:19.848Z,0.93
2022-09-05T08:38:47.425Z,1.00
2022-09-05T08:41:14.759Z,1.00
2022-09-05T08:46:37.404Z,1.17
2022-09-05T08:46:54.907Z,1.10
2022-09-05T08:49:41.411Z,1.30
2022-09-05T08:52:30.101Z,1.10
2022-09-05T08:55:07.544Z,0.97
2022-09-05T08:57:47.081Z,1.10
2022-09-05T09:00:24.090Z,1.00
2022-09-05T09:03:13.121Z,1.00
2022-09-05T09:06:11.861Z,1.00
2022-09-05T09:08:41.979Z,0.90
2022-09-05T09:11:18.041Z,1.00
2022-09-05T09:13:54.575Z,0.85
2022-09-05T09:16:30.892Z,0.82
2022-09-05T09:18:58.130Z,0.90
2022-09-05T09:21:48.110Z,0.90
2022-09-05T09:24:38.415Z,1.67
2022-09-05T09:27:49.147Z,1.42
2022-09-05T09:30:08.492Z,0.77
2022-09-05T09:32:45.022Z,0.90
2022-09-05T09:35:15.322Z,1.25
2022-09-05T09:38:01.192Z,0.90
2022-09-05T09:40:34.364Z,1.52
2022-09-05T09:43:08.370Z,1.00
2022-09-05T09:45:41.999Z,0.65
2022-09-05T09:48:09.128Z,0.90
2022-09-05T09:50:58.720Z,0.90
2022-09-05T09:53:44.076Z,0.82
2022-09-05T09:56:31.928Z,1.00
2022-09-05T09:59:04.833Z,1.00
2022-09-05T10:01:44.391Z,0.90
2022-09-05T10:10:32.845Z,1.30
2022-09-05T10:10:49.407Z,0.65
2022-09-05T10:10:49.409Z,0.85
2022-09-05T10:13:10.252Z,0.80
2022-09-05T10:15:56.301Z,1.08
2022-09-05T10:18:43.222Z,0.88
2022-09-05T10:21:19.792Z,0.80
2022-09-05T10:23:46.944Z,0.85
2022-09-05T10:26:29.549Z,1.00
2022-09-05T10:29:34.722Z,0.82
2022-09-05T10:32:47.111Z,0.93
2022-09-05T10:35:21.103Z,1.00
2022-09-05T10:37:54.975Z,0.82
2022-09-05T10:40:24.020Z,1.08
2022-09-05T10:43:00.797Z,1.02
2022-09-05T10:45:30.204Z,0.90
2022-09-05T10:48:21.132Z,1.10
2022-09-05T10:51:00.949Z,0.80
2022-09-05T10:53:48.364Z,0.80
2022-09-05T10:56:19.425Z,1.05
2022-09-05T11:00:05.670Z,1.00
2022-09-05T11:02:30.156Z,1.00
2022-09-05T11:04:53.409Z,0.98
2022-09-05T11:07:29.542Z,1.02
2022-09-05T11:10:12.078Z,0.63
2022-09-05T11:12:58.553Z,1.08
2022-09-05T11:15:34.718Z,1.00
2022-09-05T11:18:04.297Z,1.35
2022-09-05T11:20:35.691Z,0.95
2022-09-05T11:23:06.166Z,0.90
2022-09-05T11:25:39.960Z,0.90
2022-09-05T11:28:14.438Z,0.95
2022-09-05T11:30:43.767Z,0.93
2022-09-05T11:39:47.068Z,1.08
2022-09-05T11:39:54.099Z,0.90
2022-09-05T11:39:58.354Z,1.10
2022-09-05T11:41:55.157Z,0.98
2022-09-05T11:44:26.998Z,0.95
2022-09-05T11:47:28.166Z,0.98
2022-09-05T11:49:59.616Z,0.93
2022-09-05T11:52:46.720Z,1.50
2022-09-05T11:55:36.090Z,0.93
2022-09-05T11:58:43.799Z,1.00
2022-09-05T12:01:41.311Z,1.00
2022-09-05T12:04:20.633Z,0.75
2022-09-05T12:06:57.214Z,1.00
2022-09-05T12:09:29.552Z,1.00
2022-09-05T12:12:18.819Z,0.90
2022-09-05T12:15:07.183Z,0.98
2022-09-05T12:17:50.183Z,0.90
2022-09-05T12:20:28.910Z,1.00
2022-09-05T12:23:38.482Z,0.80
2022-09-05T12:27:44.851Z,0.85
2022-09-05T12:29:34.840Z,0.80
2022-09-05T12:33:32.814Z,0.90
2022-09-05T12:36:09.947Z,1.00
2022-09-05T12:40:40.599Z,0.73
2022-09-05T12:41:43.358Z,1.20
2022-09-05T12:44:42.877Z,0.98
2022-09-05T12:46:46.899Z,0.90
2022-09-05T12:49:23.903Z,0.90
2022-09-05T12:52:26.018Z,1.00
2022-09-05T12:54:57.104Z,0.90
2022-09-05T13:00:18.731Z,1.00
2022-09-05T13:03:13.875Z,0.90
2022-09-05T13:03:28.069Z,1.00
2022-09-05T13:06:02.011Z,0.93
2022-09-05T13:08:38.315Z,1.00
2022-09-05T13:14:47.484Z,1.10
2022-09-05T13:14:52.471Z,1.00
2022-09-05T13:16:48.311Z,0.80
2022-09-05T13:19:32.126Z,0.98
2022-09-05T13:22:00.820Z,1.00
2022-09-05T13:24:32.243Z,0.82
2022-09-05T13:27:25.445Z,0.80
2022-09-05T13:35:50.526Z,0.90
2022-09-05T13:37:58.802Z,1.00
2022-09-05T13:38:04.234Z,0.95
2022-09-05T13:38:49.295Z,1.25
2022-09-05T13:41:27.876Z,1.08
2022-09-05T13:44:00.220Z,1.08
2022-09-05T13:46:57.446Z,1.00
2022-09-05T13:49:29.190Z,1.10
2022-09-05T13:52:05.272Z,0.90
2022-09-05T13:54:36.507Z,0.90
2022-09-05T13:57:07.232Z,1.20
2022-09-05T13:59:41.091Z,1.00
2022-09-05T14:02:27.705Z,1.00
2022-09-05T14:05:19.510Z,0.93
2022-09-05T14:08:15.183Z,1.05
2022-09-05T14:11:02.161Z,1.00
2022-09-05T14:13:39.931Z,1.10
2022-09-05T14:16:11.809Z,0.90
2022-09-05T14:19:03.939Z,1.05
2022-09-05T14:21:33.279Z,1.00
2022-09-05T14:24:27.661Z,1.00
2022-09-05T14:27:06.450Z,0.85
2022-09-05T14:29:41.783Z,0.90
2022-09-05T14:37:45.521Z,1.05
2022-09-05T14:37:54.222Z,0.93
2022-09-05T14:38:14.514Z,0.77
2022-09-05T14:41:02.794Z,1.10
2022-09-05T14:43:48.907Z,1.15
2022-09-05T14:46:42.652Z,0.98
2022-09-05T14:49:24.093Z,0.90
2022-09-05T14:51:54.883Z,0.90
2022-09-05T15:02:39.571Z,0.98
2022-09-05T15:02:49.948Z,0.95
2022-09-05T15:03:02.026Z,1.00
2022-09-05T15:05:52.113Z,0.90
2022-09-05T15:11:23.923Z,1.20
2022-09-05T15:12:16.833Z,1.00
2022-09-05T15:14:03.605Z,1.10
2022-09-05T15:16:32.365Z,1.10
2022-09-05T15:18:59.566Z,1.10
2022-09-05T15:21:35.353Z,1.00
2022-09-05T15:24:14.347Z,1.20
2022-09-05T15:26:48.511Z,1.08
2022-09-05T15:29:22.120Z,1.10
2022-09-05T15:31:51.426Z,1.17
2022-09-05T15:34:29.424Z,1.00
2022-09-05T15:37:22.484Z,0.93
2022-09-05T15:39:44.275Z,0.93
2022-09-05T15:42:21.976Z,1.05
2022-09-05T15:45:08.618Z,0.95
2022-09-05T15:47:37.149Z,1.10
2022-09-05T15:50:08.616Z,0.98
2022-09-05T15:52:52.731Z,1.02
2022-09-05T15:55:24.491Z,1.23
2022-09-05T15:57:53.279Z,1.10
2022-09-05T16:00:51.220Z,1.08
2022-09-05T16:04:18.577Z,1.10
2022-09-05T16:10:33.693Z,1.13
2022-09-05T16:10:47.207Z,1.10
2022-09-05T16:14:39.383Z,1.10
2022-09-05T16:23:11.794Z,1.10
2022-09-05T16:23:27.400Z,1.30
2022-09-05T16:23:32.025Z,1.10
2022-09-05T16:26:01.350Z,1.20
2022-09-05T16:28:30.555Z,1.23
2022-09-05T16:31:02.569Z,1.00
2022-09-05T16:33:31.945Z,1.10
2022-09-05T16:36:05.915Z,1.35
2022-09-05T16:38:48.658Z,1.00
2022-09-05T16:41:27.369Z,1.20
2022-09-05T16:43:57.234Z,1.20
2022-09-05T16:46:45.828Z,1.20
2022-09-05T16:49:42.196Z,1.20
2022-09-05T16:52:08.304Z,1.30
2022-09-05T16:54:40.394Z,1.40
2022-09-05T16:57:12.643Z,1.23
2022-09-05T16:59:42.375Z,1.20
2022-09-05T17:02:11.306Z,1.20
2022-09-05T17:05:04.501Z,1.10
2022-09-05T17:07:51.672Z,1.20
2022-09-05T17:10:20.620Z,1.20
2022-09-05T17:12:57.033Z,1.20
2022-09-05T17:15:27.331Z,1.30
2022-09-05T17:18:20.876Z,1.17
2022-09-05T17:20:47.928Z,1.27
2022-09-05T17:29:20.804Z,1.17
2022-09-05T17:29:29.819Z,1.20
2022-09-05T17:32:47.303Z,1.30
2022-09-05T17:35:23.373Z,1.30
2022-09-05T17:38:12.164Z,1.30
2022-09-05T17:40:51.505Z,1.50
2022-09-05T17:43:28.401Z,1.20
2022-09-05T17:46:09.709Z,1.30
2022-09-05T17:48:58.628Z,1.27
2022-09-05T17:51:51.503Z,1.40
2022-09-05T17:54:30.966Z,1.77
2022-09-05T17:57:18.057Z,1.37
2022-09-05T17:59:45.360Z,1.20
2022-09-05T18:02:15.385Z,1.40
2022-09-05T18:04:48.931Z,1.60
2022-09-05T18:07:35.212Z,1.80
2022-09-05T18:10:14.811Z,1.90
2022-09-05T18:13:12.452Z,1.33
2022-09-05T18:15:35.246Z,1.40
2022-09-05T18:18:05.310Z,1.50
2022-09-05T18:23:54.057Z,1.40
2022-09-05T18:26:23.826Z,1.60
2022-09-05T18:28:53.795Z,1.63
2022-09-05T18:31:41.646Z,1.50
2022-09-05T18:34:15.653Z,1.40
2022-09-05T18:37:06.784Z,1.50
2022-09-05T18:39:40.149Z,1.30
2022-09-05T18:42:26.337Z,1.40
2022-09-05T18:45:03.050Z,1.40
2022-09-05T18:47:51.003Z,1.57
2022-09-05T18:50:26.596Z,1.50
2022-09-05T18:53:09.225Z,1.30
2022-09-05T18:56:12.081Z,1.73
2022-09-05T18:58:29.676Z,1.50
2022-09-05T19:00:57.198Z,1.50
2022-09-05T19:03:30.169Z,1.37
2022-09-05T19:05:57.650Z,1.50
2022-09-05T19:08:48.006Z,1.60
2022-09-05T19:11:28.123Z,1.50
2022-09-05T19:14:26.625Z,1.40
2022-09-05T19:16:47.717Z,1.40
2022-09-05T19:19:24.417Z,1.40
2022-09-05T19:22:33.234Z,1.40
2022-09-05T19:24:47.668Z,1.40
2022-09-05T19:29:42.428Z,1.40
2022-09-05T19:36:51.631Z,1.30
2022-09-05T19:37:05.766Z,1.50
2022-09-05T19:37:09.250Z,1.43
2022-09-05T19:38:39.687Z,1.50
2022-09-05T19:47:06.584Z,1.40
2022-09-05T19:47:36.824Z,1.13
2022-09-05T19:47:44.911Z,1.60
2022-09-05T19:49:41.026Z,1.23
2022-09-05T19:52:17.763Z,1.40
2022-09-05T19:54:50.567Z,1.20
2022-09-05T19:57:21.889Z,1.40
2022-09-05T19:59:53.995Z,1.40
2022-09-05T20:02:29.871Z,1.30
2022-09-05T20:04:58.488Z,1.30
2022-09-05T20:07:27.310Z,1.20
2022-09-05T20:09:55.299Z,1.50
2022-09-05T20:12:25.122Z,1.40
2022-09-05T20:14:52.314Z,1.40
2022-09-05T20:17:31.208Z,1.30
2022-09-05T20:20:08.053Z,1.40
2022-09-05T20:22:49.575Z,1.37
2022-09-05T20:25:34.975Z,1.40
2022-09-05T20:28:06.970Z,1.80
2022-09-05T20:30:37.399Z,1.60
2022-09-05T20:33:07.319Z,1.33
2022-09-05T20:40:10.485Z,1.30
2022-09-05T20:43:17.349Z,1.40
2022-09-05T20:43:23.028Z,1.40
2022-09-05T20:44:17.244Z,1.40
2022-09-05T20:50:35.736Z,1.50
2022-09-05T20:54:19.913Z,1.40
2022-09-05T20:54:21.348Z,1.60
2022-09-05T20:55:38.421Z,1.40
2022-09-05T20:58:24.681Z,1.30
2022-09-05T21:01:24.676Z,1.40
2022-09-05T21:03:55.092Z,1.30
2022-09-05T21:06:35.591Z,1.30
2022-09-05T21:09:25.336Z,1.20
2022-09-05T21:11:54.015Z,1.30
2022-09-05T21:14:22.304Z,1.20
2022-09-05T21:16:56.685Z,1.30
2022-09-05T21:19:31.492Z,1.30
2022-09-05T21:22:09.239Z,1.37
2022-09-05T21:24:36.942Z,1.30
2022-09-05T21:27:17.595Z,1.30
2022-09-05T21:29:46.885Z,1.33
2022-09-05T21:32:20.791Z,1.40
2022-09-05T21:34:53.688Z,1.40
2022-09-05T21:37:20.951Z,1.20
2022-09-05T21:39:59.318Z,1.33
2022-09-05T21:47:03.520Z,1.23
2022-09-05T21:47:44.485Z,1.30
2022-09-05T21:48:08.034Z,1.30
2022-09-05T21:50:40.451Z,1.27
2022-09-05T21:53:43.223Z,1.30
2022-09-05T21:59:17.793Z,1.30
2022-09-05T21:59:27.858Z,1.40
2022-09-05T22:01:50.984Z,1.40
2022-09-05T22:04:21.117Z,1.40
2022-09-05T22:06:48.767Z,1.30
2022-09-05T22:09:17.233Z,1.33
2022-09-05T22:11:50.448Z,1.37
2022-09-05T22:14:18.603Z,1.50
2022-09-05T22:16:47.407Z,1.30
2022-09-05T22:19:17.817Z,1.40
2022-09-05T22:21:45.052Z,1.33
2022-09-05T22:24:12.554Z,1.40
2022-09-05T22:27:11.444Z,1.23
2022-09-05T22:29:34.468Z,1.20
2022-09-05T22:32:03.021Z,1.33
2022-09-05T22:34:30.870Z,1.30
2022-09-05T22:36:58.143Z,1.40
2022-09-05T22:39:36.332Z,1.40
2022-09-05T22:42:07.606Z,1.30
2022-09-05T22:44:38.941Z,1.30
2022-09-05T22:47:06.621Z,1.23
2022-09-05T22:49:36.320Z,1.40
2022-09-05T22:52:07.178Z,1.30
2022-09-05T22:54:34.992Z,1.40
2022-09-05T22:57:02.383Z,1.53
2022-09-05T22:59:29.567Z,1.27
2022-09-05T23:01:56.784Z,1.30
2022-09-05T23:04:24.028Z,1.30
2022-09-05T23:06:51.343Z,1.40
2022-09-05T23:09:18.500Z,1.30
2022-09-05T23:11:45.642Z,1.40
2022-09-05T23:14:12.820Z,1.30
2022-09-05T23:16:39.960Z,1.40
2022-09-05T23:19:07.100Z,1.40
2022-09-05T23:21:35.020Z,1.30
2022-09-05T23:24:02.226Z,1.30
2022-09-05T23:26:29.788Z,1.40
2022-09-05T23:28:57.025Z,1.30
2022-09-05T23:31:24.281Z,1.40
2022-09-05T23:33:51.966Z,1.40
2022-09-05T23:36:19.145Z,1.40
2022-09-05T23:38:46.651Z,1.37
2022-09-05T23:41:14.734Z,1.30
2022-09-05T23:43:42.125Z,1.30
2022-09-05T23:46:09.366Z,1.60
2022-09-05T23:48:36.696Z,1.30
2022-09-05T23:51:07.869Z,1.40
2022-09-05T23:53:35.177Z,1.33
2022-09-05T23:56:03.047Z,1.40
2022-09-05T23:58:31.177Z,1.50
